Time;durP1;ratioP1;P1;durP2;ratioP2;P2;SDS_P1;SDS_P2;PMS_P1;PMS_P2;Temp;Humidity;BMP_temperature;BMP_pressure;BME280_temperature;BME280_humidity;BME280_pressure;Samples;Min_cycle;Max_cycle;Signal;HPM_P1;HPM_P2
2023/09/26 00:04:42;;;;;;;5.25;2.50;;;17.60;99.90;;;16.21;100.00;100851.03;10181779;28;96707;-93
2023/09/26 00:09:46;;;;;;;5.55;2.13;;;17.60;99.90;;;16.21;100.00;100858.25;10190116;28;96939;-95
2023/09/26 00:14:49;;;;;;;3.80;2.13;;;17.60;99.90;;;16.16;100.00;100855.31;10177808;28;96708;-95
2023/09/26 00:19:53;;;;;;;4.38;2.40;;;17.60;99.90;;;16.10;100.00;100856.06;10168095;28;96594;-95
2023/09/26 00:24:57;;;;;;;5.25;2.83;;;17.50;99.90;;;16.03;100.00;100853.28;10205667;28;96744;-94
2023/09/26 00:30:03;;;;;;;4.50;2.40;;;17.40;99.90;;;16.00;100.00;100856.34;10206815;28;98023;-92
2023/09/26 00:35:10;;;;;;;5.00;2.97;;;17.30;99.90;;;15.94;100.00;100855.22;10204876;28;96707;-93
2023/09/26 00:40:18;;;;;;;5.07;2.78;;;17.30;99.90;;;15.92;100.00;100856.44;10161635;28;96612;-94
2023/09/26 00:45:22;;;;;;;5.55;2.60;;;17.30;99.90;;;15.91;100.00;100860.16;10158095;28;96652;-94
2023/09/26 00:50:26;;;;;;;3.47;2.40;;;17.30;99.90;;;15.85;100.00;100859.03;10175310;28;96618;-94
2023/09/26 00:55:29;;;;;;;4.82;2.70;;;17.20;99.90;;;15.79;100.00;100860.63;10174849;28;96597;-93
2023/09/26 01:00:33;;;;;;;3.45;2.30;;;17.10;99.90;;;15.72;100.00;100856.19;10190834;28;98358;-94
2023/09/26 01:05:37;;;;;;;7.57;2.72;;;17.10;99.90;;;15.69;100.00;100861.91;10177075;28;97399;-93
2023/09/26 01:10:42;;;;;;;6.15;2.70;;;17.00;99.90;;;15.66;100.00;100849.72;10193923;28;97275;-92
2023/09/26 01:15:46;;;;;;;6.25;2.80;;;17.00;99.90;;;15.69;100.00;100854.69;10168554;28;96789;-94
2023/09/26 01:20:50;;;;;;;6.47;2.80;;;17.00;99.90;;;15.67;100.00;100853.25;10125691;28;96535;-93
2023/09/26 01:25:55;;;;;;;5.53;3.10;;;17.00;99.90;;;15.64;100.00;100857.09;10159039;28;97570;-93
2023/09/26 01:30:59;;;;;;;6.78;3.20;;;17.00;99.90;;;15.67;100.00;100848.72;10121448;28;96957;-94
2023/09/26 01:36:04;;;;;;;4.05;2.53;;;17.00;99.90;;;15.65;100.00;100850.75;10128586;28;96709;-94
2023/09/26 01:41:08;;;;;;;5.63;3.45;;;17.00;99.90;;;15.64;100.00;100856.28;10150449;28;97999;-93
2023/09/26 01:46:12;;;;;;;5.05;3.10;;;17.00;99.90;;;15.62;100.00;100856.47;10128321;28;98152;-93
2023/09/26 01:51:16;;;;;;;5.95;3.42;;;17.00;99.90;;;15.57;100.00;100858.81;10109543;28;96715;-94
2023/09/26 01:56:19;;;;;;;4.68;2.67;;;16.90;99.90;;;15.53;100.00;100863.75;10163296;28;97431;-93
2023/09/26 02:01:23;;;;;;;6.00;3.15;;;16.90;99.90;;;15.50;100.00;100858.75;10158105;28;96578;-94
2023/09/26 02:06:27;;;;;;;5.38;3.30;;;16.90;99.90;;;15.48;100.00;100857.28;10158382;28;96854;-94
2023/09/26 02:11:33;;;;;;;5.45;3.38;;;16.80;99.90;;;15.46;100.00;100856.59;10163845;28;96481;-93
2023/09/26 02:16:37;;;;;;;5.30;2.92;;;16.80;99.90;;;15.43;100.00;100856.97;10177276;28;98269;-94
2023/09/26 02:21:41;;;;;;;6.22;3.60;;;16.80;99.90;;;15.40;100.00;100854.66;10210080;28;96858;-94
2023/09/26 02:26:45;;;;;;;9.07;3.60;;;16.70;99.90;;;15.41;100.00;100853.63;10180551;28;96860;-95
2023/09/26 02:31:49;;;;;;;7.30;3.88;;;16.70;99.90;;;15.38;100.00;100852.16;10181752;28;96568;-95
2023/09/26 02:36:54;;;;;;;6.13;3.60;;;16.70;99.90;;;15.35;100.00;100859.72;10184609;28;96648;-94
2023/09/26 02:41:57;;;;;;;3.78;2.80;;;16.70;99.90;;;15.30;100.00;100862.97;10161411;28;96611;-93
2023/09/26 02:47:02;;;;;;;7.22;3.70;;;16.70;99.90;;;15.24;100.00;100866.38;10204727;28;96622;-94
2023/09/26 02:52:07;;;;;;;7.55;3.50;;;16.60;99.90;;;15.24;100.00;100869.88;10188501;28;96631;-94
2023/09/26 02:57:11;;;;;;;5.18;3.40;;;16.60;99.90;;;15.25;100.00;100876.06;10191633;28;97326;-94
2023/09/26 03:02:15;;;;;;;5.20;3.10;;;16.60;99.90;;;15.26;100.00;100878.56;10212962;28;97274;-94
2023/09/26 03:07:19;;;;;;;5.90;3.33;;;16.60;99.90;;;15.24;100.00;100875.25;10158918;28;97305;-94
2023/09/26 03:12:22;;;;;;;5.50;3.13;;;16.60;99.90;;;15.21;100.00;100870.22;10210678;28;96630;-93
2023/09/26 03:17:26;;;;;;;5.88;3.58;;;16.60;99.90;;;15.19;100.00;100869.59;10172583;28;97647;-92
2023/09/26 03:22:30;;;;;;;6.28;3.33;;;16.50;99.90;;;15.18;100.00;100865.25;10200538;28;98381;-93
2023/09/26 03:27:33;;;;;;;8.75;3.88;;;16.60;99.90;;;15.16;100.00;100864.59;10178556;28;96626;-93
2023/09/26 03:32:37;;;;;;;7.15;3.58;;;16.50;99.90;;;15.17;100.00;100865.41;10193221;28;96751;-93
2023/09/26 03:37:41;;;;;;;8.30;3.80;;;16.50;99.90;;;15.16;100.00;100863.75;10173783;28;97409;-92
2023/09/26 03:42:45;;;;;;;9.63;3.15;;;16.50;99.90;;;15.14;100.00;100863.94;10200358;28;96740;-93
2023/09/26 03:47:49;;;;;;;6.15;3.60;;;16.50;99.90;;;15.13;100.00;100867.66;10191654;28;96642;-93
2023/09/26 03:52:53;;;;;;;8.32;4.40;;;16.50;99.90;;;15.13;100.00;100875.69;10181004;28;96767;-94
2023/09/26 03:57:57;;;;;;;6.45;3.67;;;16.50;99.90;;;15.15;100.00;100883.53;10203071;28;96682;-93
2023/09/26 04:03:04;;;;;;;9.15;3.60;;;16.50;99.90;;;15.11;100.00;100869.66;10160812;28;97248;-94
2023/09/26 04:08:08;;;;;;;7.30;4.38;;;16.50;99.90;;;15.09;100.00;100877.03;10156021;28;97229;-92
2023/09/26 04:13:12;;;;;;;6.80;3.75;;;16.50;99.90;;;15.06;100.00;100881.94;10159030;28;96790;-93
2023/09/26 04:18:15;;;;;;;5.60;3.42;;;16.40;99.90;;;15.04;100.00;100879.41;10190242;28;98690;-94
2023/09/26 04:23:19;;;;;;;8.02;3.67;;;16.40;99.90;;;14.98;100.00;100874.78;10172662;28;96732;-93
2023/09/26 04:28:23;;;;;;;7.50;4.45;;;16.40;99.90;;;14.94;100.00;100881.53;10166752;28;97044;-93
2023/09/26 04:33:26;;;;;;;11.45;3.85;;;16.30;99.90;;;14.82;100.00;100874.94;10158178;28;98827;-93
2023/09/26 04:38:30;;;;;;;4.18;2.60;;;16.20;99.90;;;14.81;100.00;100882.09;10167758;28;96788;-96
2023/09/26 04:43:34;;;;;;;7.07;3.65;;;16.20;99.90;;;14.77;100.00;100883.50;10174444;28;98033;-92
2023/09/26 04:48:39;;;;;;;5.63;3.22;;;16.20;99.90;;;14.73;100.00;100892.88;10180162;28;97314;-92
2023/09/26 04:53:43;;;;;;;6.68;3.47;;;16.10;99.90;;;14.69;100.00;100892.44;10209931;28;96611;-91
2023/09/26 04:58:47;;;;;;;7.40;3.83;;;16.10;99.90;;;14.67;100.00;100893.59;10196106;28;96973;-92
2023/09/26 05:03:50;;;;;;;10.20;4.68;;;16.10;99.90;;;14.64;100.00;100884.09;10175923;28;96776;-92
2023/09/26 05:08:55;;;;;;;6.78;4.15;;;16.00;99.90;;;14.68;100.00;100896.09;10210549;28;97278;-92
2023/09/26 05:13:59;;;;;;;14.05;4.60;;;16.10;99.90;;;14.72;100.00;100908.09;10147973;28;96755;-92
2023/09/26 05:19:04;;;;;;;9.43;3.70;;;16.10;99.90;;;14.76;100.00;100902.41;10163984;28;99587;-92
2023/09/26 05:24:08;;;;;;;6.90;4.03;;;16.20;99.90;;;14.80;100.00;100906.38;10210266;28;96828;-91
2023/09/26 05:29:11;;;;;;;5.47;3.67;;;16.20;99.90;;;14.88;100.00;100904.50;10168381;28;96695;-92
2023/09/26 05:34:15;;;;;;;10.20;4.53;;;16.20;99.90;;;15.01;100.00;100911.09;10191021;28;99121;-85
2023/09/26 05:39:19;;;;;;;8.55;4.22;;;16.30;99.90;;;15.12;100.00;100908.81;10233612;28;96827;-86
2023/09/26 05:44:22;;;;;;;8.18;4.90;;;16.50;99.90;;;15.26;100.00;100909.84;10197971;28;96777;-86
2023/09/26 05:49:26;;;;;;;8.48;5.30;;;16.60;99.90;;;15.38;100.00;100910.25;10162130;28;98448;-86
2023/09/26 05:54:33;;;;;;;8.35;4.63;;;16.70;99.90;;;15.53;100.00;100916.44;10177133;28;96673;-87
2023/09/26 05:59:37;;;;;;;9.48;5.50;;;16.90;99.90;;;15.73;100.00;100920.31;10179221;28;98413;-87
2023/09/26 06:04:44;;;;;;;8.63;4.65;;;17.00;99.90;;;15.90;100.00;100915.59;10172270;28;96694;-87
2023/09/26 06:09:49;;;;;;;8.63;4.45;;;17.20;99.90;;;16.09;100.00;100919.56;10170985;28;96801;-87
2023/09/26 06:15:11;;;;;;;10.80;4.55;;;17.40;99.90;;;16.31;100.00;100909.72;10181367;28;96668;-89
2023/09/26 06:20:15;;;;;;;6.18;4.15;;;17.60;99.90;;;16.51;100.00;100913.47;10167336;28;96876;-88
2023/09/26 06:25:20;;;;;;;8.55;4.35;;;17.90;99.90;;;16.75;100.00;100912.31;10202954;28;97413;-89
2023/09/26 06:30:24;;;;;;;12.25;4.20;;;18.00;99.90;;;16.97;100.00;100910.50;10198052;28;96783;-88
2023/09/26 06:35:31;;;;;;;7.72;4.28;;;18.30;99.90;;;17.28;100.00;100912.81;10182527;28;98532;-89
2023/09/26 06:40:35;;;;;;;7.35;3.42;;;18.60;99.90;;;17.53;100.00;100912.38;10186134;28;96613;-87
2023/09/26 06:45:39;;;;;;;7.90;3.72;;;18.80;99.90;;;17.80;100.00;100899.97;10169209;28;99090;-87
2023/09/26 06:50:43;;;;;;;5.97;3.42;;;19.10;99.90;;;18.07;100.00;100900.94;10162839;28;97304;-89
2023/09/26 06:55:47;;;;;;;3.90;2.92;;;19.30;99.90;;;18.30;100.00;100904.16;10178701;28;96877;-90
2023/09/26 07:00:51;;;;;;;6.40;3.33;;;19.60;99.90;;;18.53;100.00;100903.81;10189578;28;97308;-86
2023/09/26 07:05:56;;;;;;;5.45;3.45;;;19.90;99.90;;;18.78;100.00;100911.34;10188835;28;98036;-83
2023/09/26 07:11:03;;;;;;;7.65;3.63;;;20.10;99.90;;;19.02;100.00;100908.06;10182579;28;96757;-84
2023/09/26 07:16:08;;;;;;;6.78;3.33;;;20.40;99.90;;;19.23;100.00;100909.72;10191795;28;96814;-84
2023/09/26 07:21:12;;;;;;;5.45;2.83;;;20.60;99.90;;;19.42;100.00;100910.75;10185000;28;98664;-84
2023/09/26 07:26:17;;;;;;;6.10;2.90;;;20.80;99.90;;;19.61;100.00;100901.88;10197064;28;96708;-86
2023/09/26 07:31:21;;;;;;;4.25;3.33;;;21.00;99.90;;;19.76;100.00;100905.13;10183159;28;96830;-84
2023/09/26 07:36:25;;;;;;;4.90;2.90;;;21.20;99.90;;;19.88;100.00;100909.88;10191154;28;98212;-84
2023/09/26 07:41:28;;;;;;;7.38;2.67;;;21.30;99.90;;;20.05;100.00;100914.59;10216005;28;96698;-84
2023/09/26 07:46:32;;;;;;;4.75;3.30;;;21.50;99.90;;;20.27;100.00;100908.91;10190861;28;98934;-84
2023/09/26 07:51:36;;;;;;;5.70;3.15;;;21.70;99.90;;;20.50;100.00;100909.25;10187690;28;98625;-84
2023/09/26 07:56:41;;;;;;;5.40;3.58;;;21.90;99.90;;;20.65;97.94;100927.03;10189426;28;97975;-84
2023/09/26 08:01:45;;;;;;;6.65;3.70;;;22.10;99.90;;;20.80;95.34;100927.56;10179413;28;98544;-84
2023/09/26 08:06:49;;;;;;;4.53;2.88;;;22.20;99.90;;;21.02;93.57;100922.66;10181994;28;97439;-84
2023/09/26 08:11:52;;;;;;;7.68;3.40;;;22.30;99.90;;;21.20;90.21;100921.88;10171572;28;98448;-85
2023/09/26 08:16:56;;;;;;;6.43;3.22;;;22.60;99.90;;;21.25;86.94;100916.66;10164398;28;97615;-84
2023/09/26 08:22:00;;;;;;;5.55;3.15;;;22.70;99.90;;;21.26;86.76;100919.13;10201696;28;96693;-85
2023/09/26 08:27:06;;;;;;;6.95;3.35;;;22.70;99.90;;;21.40;86.38;100919.88;10178681;28;96693;-85
2023/09/26 08:32:10;;;;;;;8.70;3.70;;;22.80;99.90;;;21.42;83.96;100911.56;10165442;28;98575;-84
2023/09/26 08:37:14;;;;;;;6.45;3.47;;;22.90;99.90;;;21.52;85.18;100915.38;10169113;28;96586;-85
2023/09/26 08:42:27;;;;;;;8.25;3.38;;;23.00;99.90;;;21.66;84.14;100910.69;10179963;28;96752;-86
2023/09/26 08:47:35;;;;;;;5.18;2.92;;;23.10;99.90;;;21.83;82.74;100905.50;10161662;28;97384;-85
2023/09/26 08:52:39;;;;;;;5.57;3.42;;;23.20;99.90;;;21.94;83.00;100907.47;10189576;28;98044;-85
2023/09/26 08:57:43;;;;;;;4.75;3.20;;;23.30;99.90;;;22.14;81.63;100899.97;10197107;28;96604;-85
2023/09/26 09:02:48;;;;;;;6.22;3.55;;;23.50;99.90;;;22.28;80.34;100902.50;10168441;28;98260;-85
2023/09/26 09:07:51;;;;;;;5.50;3.10;;;23.70;99.90;;;22.47;79.00;100897.88;10214233;28;97677;-86
2023/09/26 09:13:04;;;;;;;13.00;3.67;;;23.90;99.90;;;22.63;77.97;100899.97;10163794;28;96702;-85
2023/09/26 09:18:10;;;;;;;4.68;3.10;;;24.30;99.90;;;22.88;76.00;100897.13;10184953;28;96648;-86
2023/09/26 09:23:16;;;;;;;5.43;3.35;;;24.60;99.30;;;23.41;77.42;100888.94;10202685;28;96488;-85
2023/09/26 09:28:22;;;;;;;5.20;3.13;;;25.10;99.60;;;24.03;73.33;100882.97;10211287;28;97173;-85
2023/09/26 09:33:26;;;;;;;5.05;2.85;;;25.50;98.40;;;24.40;68.51;100880.75;10192308;28;97623;-85
2023/09/26 09:38:33;;;;;;;6.53;3.22;;;25.80;97.20;;;24.38;66.14;100874.75;10199129;28;96659;-85
2023/09/26 09:43:37;;;;;;;4.43;2.90;;;25.70;95.70;;;24.32;65.44;100866.72;10206792;28;97545;-85
2023/09/26 09:48:44;;;;;;;5.63;2.90;;;25.70;95.10;;;24.27;66.21;100865.53;10194324;28;97529;-85
2023/09/26 09:54:00;;;;;;;3.78;3.03;;;25.70;95.00;;;24.36;68.70;100857.88;10196642;28;96606;-85
2023/09/26 09:59:08;;;;;;;5.93;2.65;;;25.70;95.20;;;24.52;65.03;100848.09;10193040;28;96563;-85
2023/09/26 10:04:16;;;;;;;5.95;2.75;;;25.90;94.70;;;24.59;62.52;100846.06;10187444;28;96882;-84
2023/09/26 10:09:21;;;;;;;5.30;2.65;;;26.10;93.90;;;24.80;61.59;100831.75;10194013;28;96621;-84
2023/09/26 10:14:30;;;;;;;5.88;2.92;;;26.20;93.40;;;24.97;61.57;100823.59;10183339;28;96579;-85
2023/09/26 10:19:34;;;;;;;4.97;2.85;;;26.40;92.90;;;25.04;59.07;100815.28;10189237;28;98444;-84
2023/09/26 10:25:05;;;;;;;5.45;2.20;;;26.50;91.90;;;25.04;56.78;100818.00;10183772;28;96766;-85
2023/09/26 10:30:13;;;;;;;3.78;2.63;;;26.50;90.50;;;25.14;56.71;100803.78;10178504;28;96636;-84
2023/09/26 10:35:16;;;;;;;4.07;2.65;;;26.60;90.30;;;25.35;53.69;100809.22;10174861;28;98893;-84
2023/09/26 10:40:23;;;;;;;4.22;2.30;;;26.80;88.00;;;25.57;53.87;100808.44;10209068;28;97543;-85
2023/09/26 10:45:27;;;;;;;3.55;2.30;;;27.00;87.90;;;25.65;52.20;100793.56;10191309;28;96476;-85
2023/09/26 10:50:33;;;;;;;4.88;2.80;;;27.10;85.40;;;26.00;53.08;100793.19;10179263;28;96547;-84
2023/09/26 10:55:39;;;;;;;4.97;2.45;;;27.40;85.50;;;26.41;50.08;100780.84;10174094;28;98337;-85
2023/09/26 11:00:51;;;;;;;5.35;2.70;;;27.80;83.50;;;26.80;47.88;100780.59;10188667;28;96806;-85
2023/09/26 11:06:16;;;;;;;3.60;2.20;;;28.40;79.30;;;27.13;47.68;100771.31;10158388;28;98731;-85
2023/09/26 11:11:21;;;;;;;4.50;2.40;;;29.00;78.50;;;27.54;47.99;100769.63;10191219;28;96560;-84
2023/09/26 11:16:24;;;;;;;4.13;2.30;;;29.60;78.70;;;28.16;45.94;100767.91;10170258;28;96745;-84
2023/09/26 11:21:29;;;;;;;3.85;1.95;;;30.40;77.10;;;28.75;44.69;100753.75;10155326;28;96727;-85
2023/09/26 11:26:34;;;;;;;4.47;2.67;;;31.00;75.40;;;29.45;44.03;100749.22;10181130;28;96760;-84
2023/09/26 11:31:39;;;;;;;3.05;2.20;;;31.70;75.70;;;30.07;40.16;100739.59;10160197;28;98599;-85
2023/09/26 11:36:43;;;;;;;3.47;1.90;;;32.20;73.10;;;30.76;40.10;100736.88;10154328;28;96887;-84
2023/09/26 11:42:07;;;;;;;6.28;2.10;;;32.40;72.00;;;31.00;34.64;100734.97;10168895;28;96467;-85
2023/09/26 11:47:11;;;;;;;3.53;2.08;;;32.50;65.80;;;31.04;38.72;100727.78;10190225;28;96808;-84
2023/09/26 11:52:16;;;;;;;6.20;2.50;;;32.20;66.10;;;30.55;36.20;100737.03;10179547;28;96548;-84
2023/09/26 11:57:21;;;;;;;3.55;1.92;;;31.80;62.70;;;29.94;36.16;100731.19;10186714;28;96712;-84
2023/09/26 12:02:25;;;;;;;4.00;2.60;;;31.20;60.60;;;29.45;34.85;100730.06;10168866;28;98040;-84
2023/09/26 12:07:29;;;;;;;3.53;2.10;;;30.70;58.40;;;29.05;35.31;100723.63;10191856;28;96540;-83
2023/09/26 12:12:33;;;;;;;3.25;2.08;;;30.10;58.60;;;28.66;37.71;100720.66;10190128;28;96636;-83
2023/09/26 12:17:37;;;;;;;4.20;2.25;;;29.70;59.60;;;28.41;36.37;100713.28;10188631;28;96613;-83
2023/09/26 12:22:41;;;;;;;4.53;2.10;;;29.50;59.40;;;28.11;37.29;100710.53;10209616;28;97623;-84
2023/09/26 12:27:47;;;;;;;2.85;2.00;;;29.30;59.50;;;27.68;37.45;100707.16;10191398;28;98839;-84
2023/09/26 12:32:51;;;;;;;2.92;2.10;;;29.00;59.50;;;27.36;38.07;100710.06;10151566;28;98039;-83
2023/09/26 12:37:55;;;;;;;2.55;1.77;;;28.70;60.00;;;27.21;38.64;100703.44;10152418;28;96595;-84
2023/09/26 12:42:59;;;;;;;3.33;1.92;;;28.50;60.10;;;27.15;38.64;100700.94;10167704;28;96505;-84
2023/09/26 12:48:03;;;;;;;3.97;1.88;;;28.40;60.10;;;27.01;39.27;100691.56;10195707;28;96485;-84
2023/09/26 12:53:07;;;;;;;3.58;2.00;;;28.30;60.20;;;26.90;39.62;100696.97;10183746;28;96590;-83
2023/09/26 12:58:12;;;;;;;3.85;2.00;;;28.20;60.80;;;26.80;40.16;100680.53;10190496;28;96604;-84
2023/09/26 13:03:16;;;;;;;2.50;1.85;;;28.00;61.00;;;26.66;39.10;100693.00;10164462;28;96663;-84
2023/09/26 13:08:19;;;;;;;3.80;2.10;;;27.90;61.10;;;26.50;38.87;100688.53;10159176;28;97110;-84
2023/09/26 13:13:23;;;;;;;2.67;2.03;;;27.80;60.90;;;26.36;38.40;100680.75;10165693;28;96644;-83
2023/09/26 13:18:27;;;;;;;3.83;2.00;;;27.70;59.80;;;26.41;38.27;100683.56;10182535;28;96646;-83
2023/09/26 13:23:33;;;;;;;5.95;1.77;;;27.60;59.60;;;26.42;38.53;100682.47;10194613;28;97309;-84
2023/09/26 13:28:37;;;;;;;3.05;1.70;;;27.60;59.80;;;26.29;38.91;100672.00;10189614;28;98371;-86
2023/09/26 13:33:41;;;;;;;6.90;2.28;;;27.50;59.80;;;26.27;39.29;100676.91;10188342;28;97797;-87
2023/09/26 13:38:45;;;;;;;2.85;1.77;;;27.50;60.50;;;26.23;39.45;100667.59;10216628;28;96656;-87
2023/09/26 13:43:48;;;;;;;5.53;2.28;;;27.40;60.70;;;26.17;37.68;100674.09;10188551;28;96980;-91
2023/09/26 13:48:52;;;;;;;6.63;4.00;;;27.40;59.60;;;26.10;38.45;100677.03;10172468;28;96691;-86
2023/09/26 13:53:57;;;;;;;4.18;2.10;;;27.30;59.20;;;26.05;37.92;100674.25;10225446;28;97209;-89
2023/09/26 13:59:04;;;;;;;3.80;1.60;;;27.20;58.90;;;26.01;38.23;100683.19;10162432;28;96604;-91
2023/09/26 14:04:08;;;;;;;5.38;1.98;;;27.20;59.00;;;25.96;38.07;100674.97;10192957;28;96697;-87
2023/09/26 14:09:12;;;;;;;3.33;1.60;;;27.20;59.00;;;25.99;38.04;100674.47;10199645;28;96941;-90
2023/09/26 14:14:15;;;;;;;4.78;1.88;;;27.20;58.70;;;25.95;37.60;100673.31;10155301;28;96788;-88
2023/09/26 14:19:19;;;;;;;3.03;1.83;;;27.10;58.20;;;25.94;37.85;100677.97;10195293;28;96610;-88
2023/09/26 14:24:23;;;;;;;2.67;1.90;;;27.10;58.10;;;25.95;37.30;100665.16;10194045;28;96735;-88
2023/09/26 14:29:32;;;;;;;2.67;1.77;;;27.10;58.00;;;25.97;37.47;100668.44;10191294;28;96607;-88
2023/09/26 14:34:36;;;;;;;3.95;1.60;;;27.20;58.00;;;26.05;37.53;100667.97;10172464;28;96707;-88
2023/09/26 14:39:39;;;;;;;5.30;1.88;;;27.30;57.90;;;26.07;36.97;100665.81;10182219;28;97478;-87
2023/09/26 14:44:43;;;;;;;4.38;1.83;;;27.30;57.60;;;26.02;37.54;100652.97;10188336;28;96606;-87
2023/09/26 14:49:47;;;;;;;3.85;1.70;;;27.30;57.90;;;25.98;37.52;100661.94;10195897;28;96540;-86
2023/09/26 14:54:51;;;;;;;3.03;1.52;;;27.20;57.90;;;25.92;36.55;100657.53;10204632;28;97022;-86
2023/09/26 14:59:55;;;;;;;3.42;1.60;;;27.10;57.30;;;25.87;37.56;100661.00;10178218;28;97169;-86
2023/09/26 15:04:59;;;;;;;3.15;1.42;;;27.10;57.50;;;25.85;38.04;100647.66;10177973;28;96654;-86
2023/09/26 15:10:04;;;;;;;6.50;1.90;;;27.00;57.80;;;25.89;37.46;100650.69;10196924;28;96584;-86
2023/09/26 15:15:09;;;;;;;3.05;1.75;;;27.20;57.90;;;26.20;37.24;100654.47;10197685;28;96674;-86
2023/09/26 15:20:13;;;;;;;3.55;1.48;;;27.80;58.00;;;26.56;37.07;100652.03;10152204;28;97266;-86
2023/09/26 15:25:17;;;;;;;2.97;1.80;;;28.20;57.80;;;26.71;37.08;100649.44;10164938;28;97883;-87
2023/09/26 15:30:21;;;;;;;2.38;1.38;;;28.30;57.50;;;26.63;37.19;100648.03;10198002;28;98675;-87
2023/09/26 15:35:24;;;;;;;3.85;1.50;;;28.10;57.40;;;26.48;38.00;100649.81;10207112;28;98568;-87
2023/09/26 15:40:28;;;;;;;6.28;1.50;;;27.90;57.70;;;26.26;38.63;100649.88;10176239;28;98219;-87
2023/09/26 15:45:33;;;;;;;4.75;1.77;;;27.70;58.40;;;25.99;38.67;100647.22;10181110;28;100446;-86
2023/09/26 15:50:37;;;;;;;3.20;1.63;;;27.40;58.40;;;25.69;39.17;100651.28;10177550;28;98359;-88
2023/09/26 15:55:41;;;;;;;2.42;1.40;;;27.10;58.70;;;25.43;39.63;100652.06;10183911;28;97226;-87
2023/09/26 16:00:45;;;;;;;2.47;1.58;;;26.70;58.80;;;25.15;39.97;100648.50;10175464;28;97083;-88
2023/09/26 16:05:49;;;;;;;3.97;1.60;;;26.50;59.40;;;24.86;42.62;100655.16;10185754;28;96703;-87
2023/09/26 16:10:53;;;;;;;3.90;1.73;;;26.20;60.70;;;24.44;44.90;100652.94;10186162;28;98820;-89
2023/09/26 16:15:57;;;;;;;5.28;2.00;;;25.70;62.30;;;23.98;46.84;100666.53;10180988;28;97127;-89
2023/09/26 16:21:01;;;;;;;3.90;2.33;;;25.10;63.80;;;23.51;48.74;100674.06;10186599;28;96733;-89
2023/09/26 16:26:06;;;;;;;8.88;2.47;;;24.60;65.50;;;23.04;50.55;100682.31;10169053;28;96514;-89
2023/09/26 16:31:09;;;;;;;4.00;2.30;;;24.10;66.90;;;22.65;52.58;100684.66;10186766;28;97027;-88
2023/09/26 16:36:18;;;;;;;4.25;2.40;;;23.70;68.50;;;22.26;54.13;100679.94;10208560;28;97700;-90
2023/09/26 16:41:26;;;;;;;5.00;2.03;;;23.30;69.90;;;21.91;55.26;100684.19;10201883;28;98114;-90
2023/09/26 16:46:30;;;;;;;4.13;2.30;;;22.90;71.00;;;21.58;55.65;100686.50;10177503;28;97699;-90
2023/09/26 16:51:38;;;;;;;5.13;2.25;;;22.60;71.60;;;21.32;56.84;100690.38;10159622;28;96692;-90
2023/09/26 16:56:42;;;;;;;7.07;2.25;;;22.40;72.30;;;21.04;58.06;100686.28;10179967;28;97594;-91
2023/09/26 17:01:46;;;;;;;5.05;2.10;;;22.20;73.30;;;20.81;59.00;100695.06;10198589;28;98431;-91
2023/09/26 17:06:55;;;;;;;4.97;2.30;;;21.90;74.30;;;20.60;60.11;100702.75;10183997;28;97523;-92
2023/09/26 17:11:59;;;;;;;;;;;21.70;75.30;;;20.38;61.33;100713.88;10165609;28;97567;-92
2023/09/26 17:17:06;;;;;;;5.55;2.40;;;21.50;78.00;;;20.21;62.10;100719.03;10195396;28;96630;-91
2023/09/26 17:22:10;;;;;;;4.38;2.13;;;21.30;76.30;;;20.02;62.38;100718.09;10191367;28;97459;-91
2023/09/26 17:27:15;;;;;;;5.50;2.42;;;21.10;76.90;;;19.86;63.84;100715.91;10176530;28;96618;-92
2023/09/26 17:32:18;;;;;;;3.85;2.55;;;21.00;77.80;;;19.72;64.34;100727.81;10191932;28;96598;-92
2023/09/26 17:37:22;;;;;;;5.70;2.60;;;20.80;78.50;;;19.55;65.21;100737.38;10179963;28;96754;-92
2023/09/26 17:42:26;;;;;;;3.75;2.10;;;20.70;79.40;;;19.40;66.12;100729.56;10212320;28;96706;-92
2023/09/26 17:47:29;;;;;;;4.15;2.50;;;20.50;80.00;;;19.27;67.20;100735.00;10182248;28;96727;-92
2023/09/26 17:52:35;;;;;;;4.22;2.30;;;20.40;81.00;;;19.14;67.06;100747.47;10169795;28;96666;-92
2023/09/26 17:57:40;;;;;;;3.55;1.92;;;20.20;81.20;;;19.03;67.56;100755.38;10178221;28;97032;-91
2023/09/26 18:02:43;;;;;;;4.10;2.30;;;20.10;81.70;;;18.87;67.79;100753.94;10168886;28;98912;-92
2023/09/26 18:07:49;;;;;;;4.05;2.30;;;20.00;82.00;;;18.80;68.23;100751.25;10205828;28;98494;-91
2023/09/26 18:12:54;;;;;;;5.22;3.13;;;19.90;82.70;;;18.68;68.93;100752.91;10190417;28;96985;-90
2023/09/26 18:17:57;;;;;;;4.65;2.25;;;19.80;83.10;;;18.60;69.44;100751.22;10215451;28;98294;-91
2023/09/26 18:23:01;;;;;;;10.07;3.00;;;19.70;83.70;;;18.49;69.90;100748.34;10194867;28;96635;-92
2023/09/26 18:28:06;;;;;;;5.05;2.58;;;19.70;84.10;;;18.42;69.99;100759.09;10177962;28;96678;-91
2023/09/26 18:33:10;;;;;;;3.80;2.55;;;19.60;84.60;;;18.39;70.13;100757.63;10184108;28;98626;-91
2023/09/26 18:38:14;;;;;;;4.55;2.72;;;19.50;84.40;;;18.34;70.24;100757.41;10173070;28;99174;-89
2023/09/26 18:43:18;;;;;;;4.55;2.60;;;19.50;84.80;;;18.29;70.43;100767.97;10213111;28;97248;-88
2023/09/26 18:48:23;;;;;;;5.38;2.70;;;19.40;85.00;;;18.24;70.85;100766.94;10171440;28;96733;-90
2023/09/26 18:53:27;;;;;;;3.72;2.45;;;19.40;85.50;;;18.16;71.25;100770.63;10178172;28;96595;-85
2023/09/26 18:58:34;;;;;;;7.18;3.28;;;19.30;85.90;;;18.09;71.44;100780.53;10185668;28;96817;-91
2023/09/26 19:03:38;;;;;;;3.78;2.38;;;19.20;86.30;;;18.02;71.72;100777.00;10169950;28;96987;-91
2023/09/26 19:08:42;;;;;;;3.60;2.30;;;19.20;86.60;;;17.92;72.60;100790.81;10195821;28;96923;-91
2023/09/26 19:13:46;;;;;;;3.95;2.50;;;19.10;87.40;;;17.86;73.70;100792.44;10171252;28;96712;-91
2023/09/26 19:18:52;;;;;;;4.65;2.60;;;19.00;87.80;;;17.74;73.95;100799.44;10177525;28;96950;-90
2023/09/26 19:24:11;;;;;;;2.85;2.00;;;18.90;88.70;;;17.61;74.40;100799.34;10171074;28;98424;-91
2023/09/26 19:29:15;;;;;;;6.80;2.55;;;18.80;89.10;;;17.52;74.85;100803.25;10178664;28;98393;-93
2023/09/26 19:34:19;;;;;;;6.47;2.60;;;18.70;89.90;;;17.39;76.30;100812.88;10167454;28;98360;-93
2023/09/26 19:39:22;;;;;;;4.15;2.63;;;18.60;90.10;;;17.30;77.49;100816.75;10160497;28;96608;-92
2023/09/26 19:44:26;;;;;;;4.63;3.10;;;18.50;90.30;;;17.16;77.94;100804.25;10175925;28;97266;-92
2023/09/26 19:49:30;;;;;;;4.68;2.97;;;18.30;90.60;;;17.07;78.49;100798.19;10193937;28;96885;-91
2023/09/26 19:54:34;;;;;;;5.25;2.42;;;18.20;90.90;;;16.99;78.72;100801.03;10165800;28;96689;-91
2023/09/26 19:59:38;;;;;;;3.80;2.22;;;18.20;91.20;;;16.90;79.24;100802.19;10185502;28;97508;-91
2023/09/26 20:04:44;;;;;;;6.53;2.78;;;18.10;91.50;;;16.77;80.40;100800.22;10172569;28;98702;-91
2023/09/26 20:09:47;;;;;;;4.25;2.65;;;18.00;91.80;;;16.74;80.67;100806.00;10181631;28;97302;-92
2023/09/26 20:14:51;;;;;;;4.03;2.55;;;17.90;91.80;;;16.65;81.15;100809.78;10195050;28;96926;-92
2023/09/26 20:19:55;;;;;;;6.18;2.90;;;17.80;92.20;;;16.62;81.76;100812.06;10178551;28;97703;-91
2023/09/26 20:24:59;;;;;;;8.35;2.70;;;17.80;92.50;;;16.53;82.17;100806.81;10158867;28;98457;-93
2023/09/26 20:30:06;;;;;;;4.00;2.55;;;17.70;92.90;;;16.45;82.25;100806.09;10167071;28;96763;-92
2023/09/26 20:35:09;;;;;;;5.35;2.83;;;17.70;93.10;;;16.39;83.18;100814.91;10175627;28;96571;-93
2023/09/26 20:40:13;;;;;;;5.07;2.45;;;17.50;93.20;;;16.32;83.60;100817.53;10160104;28;96682;-94
2023/09/26 20:45:17;;;;;;;7.25;3.65;;;17.50;93.40;;;16.18;84.35;100811.19;10178722;28;96574;-94
2023/09/26 20:50:21;;;;;;;3.90;2.60;;;17.40;93.90;;;16.06;84.68;100810.84;10192867;28;96570;-94